Página principal
METAR-TAF:

METAR-TAF

Aeroportos :

Aeroporto Internacional de Genebra

Genebra, Suíça

latitude: 46-15N, longitude: 006-08E, altura: 420 m

Observação actual do tempo

O boletim foi feito há 33 minutos, às 08:20 UTC
Vento 2 kt de oeste
Temperatura -1°C
Humidade 74%
Pressão 1015 hPa
Visibilidade 10 km ou mais
Nuvens fragmentadasa uma altura de 2300 ft

METAR: LSGG 190820Z 26002KT 9999 BKN023 M01/M05 Q1015 NOSIG

Hora: 09:53 (08:53 UTC)

Previsão

O boletim foi feito há 28 minutos, às 08:25 UTC
Previsão válida de 19 às 09 UTC a 20 às 15 UTC
Vento 3 kt com direcção variável
Visibilidade 10 km ou mais
Nuvens fragmentadasa uma altura de 2500 ft
Tornando-se
de 19 às 11 UTC a 19 às 13 UTC
Poucas nuvensa uma altura de 2500 ft
Tornando-se
de 19 às 18 UTC a 19 às 21 UTC
Nuvens fragmentadasa uma altura de 4000 ft

TAF: LSGG 190825Z 1909/2015 VRB03KT 9999 BKN025 TX02/1915Z TNM02/2006Z TX03/2015Z BECMG 1911/1913 FEW025 BECMG 1918/1921 BKN040

Observações e previsões do tempo de mais de 4000 aeroportos (mensagens METAR e TAF).

As estações disponíveis são os pontos amarelos e vermelhos sobre o mapa.

Mova o rato sobre o mapa para ver o nome da estação.

Depois clique no ponto para visualizar as observações e previsões meteorológicas.

Para alterar o mapa : clique nos botões verdes com uma cruz preta para aumentar o zoom; no botão verde com uma pitada de zoom; ou nas setas verdes para mapas adjacentes.


METAR-TAF: